createdAt,value
2023-03-01T00:04:28.750Z,12.57
2023-03-01T00:09:30.455Z,12.82
2023-03-01T00:14:32.012Z,12.77
2023-03-01T00:19:33.840Z,11.65
2023-03-01T00:24:35.413Z,11.63
2023-03-01T00:29:36.965Z,11.77
2023-03-01T00:34:38.713Z,12.73
2023-03-01T00:39:40.321Z,12.05
2023-03-01T00:44:41.883Z,11.20
2023-03-01T00:49:43.550Z,12.95
2023-03-01T00:54:45.147Z,11.50
2023-03-01T00:59:46.705Z,11.88
2023-03-01T01:04:50.831Z,11.75
2023-03-01T01:09:54.867Z,12.18
2023-03-01T01:14:56.491Z,12.48
2023-03-01T01:19:58.221Z,11.95
2023-03-01T01:24:59.840Z,12.00
2023-03-01T01:30:01.419Z,11.63
2023-03-01T01:35:03.056Z,12.18
2023-03-01T01:40:05.229Z,12.75
2023-03-01T01:45:36.968Z,10.77
2023-03-01T01:50:41.578Z,12.70
2023-03-01T01:55:54.628Z,12.85
2023-03-01T02:00:56.449Z,12.85
2023-03-01T02:06:04.730Z,12.55
2023-03-01T02:11:07.063Z,12.48
2023-03-01T02:16:15.671Z,13.00
2023-03-01T02:21:47.604Z,12.17
2023-03-01T02:26:59.540Z,12.90
2023-03-01T02:32:04.946Z,12.27
2023-03-01T02:37:15.835Z,12.40
2023-03-01T02:42:27.358Z,13.00
2023-03-01T02:47:29.143Z,12.57
2023-03-01T02:53:12.167Z,13.38
2023-03-01T02:58:13.826Z,12.95
2023-03-01T03:03:17.839Z,13.18
2023-03-01T03:08:25.050Z,12.88
2023-03-01T03:13:29.464Z,13.02
2023-03-01T03:18:31.293Z,12.73
2023-03-01T03:23:32.983Z,12.98
2023-03-01T03:28:35.910Z,13.20
2023-03-01T03:33:37.915Z,13.52
2023-03-01T03:38:40.943Z,13.50
2023-03-01T03:43:44.692Z,14.13
2023-03-01T03:48:47.030Z,13.35
2023-03-01T03:53:51.428Z,14.00
2023-03-01T03:58:53.813Z,12.90
2023-03-01T04:03:55.642Z,14.45
2023-03-01T04:08:59.219Z,13.70
2023-03-01T04:14:01.169Z,14.70
2023-03-01T04:19:02.932Z,13.68
2023-03-01T04:24:05.184Z,14.13
2023-03-01T04:29:06.743Z,13.93
2023-03-01T04:34:08.504Z,14.05
2023-03-01T04:39:13.450Z,14.45
2023-03-01T04:44:15.154Z,14.52
2023-03-01T04:49:17.063Z,14.23
2023-03-01T04:54:18.659Z,14.85
2023-03-01T04:59:23.412Z,16.05
2023-03-01T05:04:26.013Z,14.70
2023-03-01T05:09:27.592Z,14.50
2023-03-01T05:14:29.910Z,15.85
2023-03-01T05:19:32.519Z,15.60
2023-03-01T05:24:35.936Z,15.70
2023-03-01T05:29:37.535Z,16.15
2023-03-01T05:34:40.003Z,16.40
2023-03-01T05:39:42.860Z,16.27
2023-03-01T05:44:44.507Z,16.45
2023-03-01T05:49:46.105Z,15.55
2023-03-01T05:54:47.667Z,15.85
2023-03-01T05:59:49.262Z,15.57
2023-03-01T06:04:50.885Z,17.77
2023-03-01T06:09:52.524Z,16.73
2023-03-01T06:14:54.071Z,17.10
2023-03-01T06:19:55.643Z,15.38
2023-03-01T06:30:15.066Z,14.90
2023-03-01T06:35:20.793Z,16.92
2023-03-01T06:40:22.885Z,16.40
2023-03-01T06:45:25.413Z,15.98
2023-03-01T06:50:26.941Z,16.35
2023-03-01T06:55:28.854Z,16.80
2023-03-01T07:00:31.139Z,16.45
2023-03-01T07:05:34.479Z,15.57
2023-03-01T07:10:36.067Z,16.33
2023-03-01T07:15:37.625Z,16.02
2023-03-01T07:20:39.132Z,16.20
2023-03-01T07:25:40.700Z,15.32
2023-03-01T07:30:42.255Z,17.83
2023-03-01T07:35:43.996Z,16.35
2023-03-01T07:40:47.944Z,17.08
2023-03-01T07:45:49.551Z,17.17
2023-03-01T07:50:51.056Z,16.23
2023-03-01T07:56:10.873Z,16.75
2023-03-01T08:01:16.144Z,16.85
2023-03-01T08:06:18.327Z,16.88
2023-03-01T08:11:19.966Z,16.67
2023-03-01T08:16:26.910Z,16.17
2023-03-01T08:21:28.575Z,16.60
2023-03-01T08:26:30.911Z,17.38
2023-03-01T08:31:38.627Z,17.02
2023-03-01T08:36:43.041Z,17.00
2023-03-01T08:41:47.039Z,16.48
2023-03-01T08:46:51.025Z,15.93
2023-03-01T08:51:52.582Z,17.27
2023-03-01T08:56:54.131Z,16.75
2023-03-01T09:01:55.734Z,16.55
2023-03-01T09:06:57.302Z,16.33
2023-03-01T09:11:58.932Z,16.30
2023-03-01T09:17:03.928Z,17.13
2023-03-01T09:22:05.948Z,16.13
2023-03-01T09:27:09.808Z,15.13
2023-03-01T09:32:11.886Z,17.42
2023-03-01T09:37:13.466Z,16.60
2023-03-01T09:42:15.137Z,17.13
2023-03-01T09:47:22.412Z,16.70
2023-03-01T09:52:38.744Z,17.23
2023-03-01T09:58:22.131Z,18.70
2023-03-01T10:03:35.737Z,16.73
2023-03-01T10:08:49.533Z,16.83
2023-03-01T10:14:15.774Z,17.77
2023-03-01T10:19:33.191Z,17.35
2023-03-01T10:24:37.149Z,17.55
2023-03-01T10:29:44.436Z,17.38
2023-03-01T10:34:45.990Z,17.50
2023-03-01T10:40:09.171Z,18.75
2023-03-01T10:45:39.782Z,18.40
2023-03-01T10:51:00.899Z,17.10
2023-03-01T10:56:05.231Z,16.63
2023-03-01T11:01:25.864Z,17.98
2023-03-01T11:06:27.486Z,17.67
2023-03-01T11:11:34.501Z,18.73
2023-03-01T11:16:39.218Z,18.00
2023-03-01T11:21:56.125Z,18.33
2023-03-01T11:27:00.827Z,17.02
2023-03-01T11:32:08.182Z,19.73
2023-03-01T11:37:27.579Z,18.63
2023-03-01T11:42:40.319Z,17.80
2023-03-01T11:47:52.294Z,19.67
2023-03-01T11:53:01.900Z,18.25
2023-03-01T11:58:13.014Z,18.63
2023-03-01T12:03:30.467Z,19.08
2023-03-01T12:08:36.758Z,19.33
2023-03-01T12:13:57.237Z,17.67
2023-03-01T12:19:01.508Z,17.35
2023-03-01T12:24:18.201Z,17.55
2023-03-01T12:29:27.195Z,17.45
2023-03-01T12:34:43.215Z,17.37
2023-03-01T12:39:53.730Z,18.33
2023-03-01T12:45:13.484Z,17.88
2023-03-01T12:50:22.812Z,18.60
2023-03-01T12:55:34.705Z,18.17
2023-03-01T13:00:52.002Z,18.65
2023-03-01T13:06:24.208Z,17.02
2023-03-01T13:11:27.412Z,16.70
2023-03-01T13:16:28.964Z,17.92
2023-03-01T13:21:32.288Z,17.05
2023-03-01T13:27:23.847Z,17.40
2023-03-01T13:32:48.509Z,18.40
2023-03-01T13:37:50.173Z,19.55
2023-03-01T13:43:04.632Z,18.35
2023-03-01T13:48:16.427Z,16.67
2023-03-01T13:53:24.482Z,17.02
2023-03-01T13:58:29.501Z,16.38
2023-03-01T14:03:33.404Z,17.83
2023-03-01T14:08:41.388Z,16.83
2023-03-01T14:13:58.209Z,17.38
2023-03-01T14:19:35.301Z,17.90
2023-03-01T14:24:45.688Z,16.02
2023-03-01T14:30:02.218Z,17.38
2023-03-01T14:35:04.794Z,15.35
2023-03-01T14:40:23.572Z,17.30
2023-03-01T14:45:27.202Z,17.15
2023-03-01T14:50:31.667Z,17.75
2023-03-01T14:55:45.700Z,17.33
2023-03-01T15:00:58.926Z,16.67
2023-03-01T15:06:06.292Z,16.75
2023-03-01T15:11:14.241Z,17.50
2023-03-01T15:16:19.561Z,17.05
2023-03-01T15:21:28.060Z,16.13
2023-03-01T15:26:42.702Z,16.90
2023-03-01T15:31:44.554Z,15.35
2023-03-01T15:36:50.665Z,16.45
2023-03-01T15:41:52.305Z,16.08
2023-03-01T15:46:54.151Z,16.27
2023-03-01T15:51:56.250Z,17.42
2023-03-01T15:56:58.004Z,16.63
2023-03-01T16:01:59.509Z,15.30
2023-03-01T16:07:02.049Z,15.45
2023-03-01T16:12:03.728Z,16.75
2023-03-01T16:17:06.429Z,14.88
2023-03-01T16:22:11.129Z,16.50
2023-03-01T16:27:12.722Z,15.55
2023-03-01T16:32:14.524Z,15.75
2023-03-01T16:37:17.098Z,15.77
2023-03-01T16:42:21.300Z,15.60
2023-03-01T16:47:23.488Z,16.98
2023-03-01T16:52:25.078Z,15.90
2023-03-01T16:57:26.737Z,16.08
2023-03-01T17:02:28.675Z,15.10
2023-03-01T17:07:34.310Z,15.50
2023-03-01T17:12:36.635Z,14.82
2023-03-01T17:17:38.162Z,15.13
2023-03-01T17:22:39.712Z,15.73
2023-03-01T17:27:41.478Z,15.13
2023-03-01T17:32:43.456Z,14.57
2023-03-01T17:37:46.534Z,14.73
2023-03-01T17:42:48.204Z,15.25
2023-03-01T17:47:49.738Z,16.55
2023-03-01T17:52:51.647Z,14.35
2023-03-01T17:57:53.169Z,15.15
2023-03-01T18:02:54.923Z,15.35
2023-03-01T18:07:56.418Z,14.48
2023-03-01T18:12:59.627Z,15.20
2023-03-01T18:18:01.192Z,13.93
2023-03-01T18:23:02.776Z,14.75
2023-03-01T18:28:04.481Z,14.85
2023-03-01T18:33:06.049Z,15.25
2023-03-01T18:38:07.586Z,14.27
2023-03-01T18:43:11.462Z,13.48
2023-03-01T18:48:14.336Z,13.02
2023-03-01T18:53:15.935Z,12.80
2023-03-01T18:58:17.456Z,13.00
2023-03-01T19:03:19.023Z,13.63
2023-03-01T19:08:20.893Z,11.65
2023-03-01T19:13:22.504Z,13.23
2023-03-01T19:18:24.009Z,13.20
2023-03-01T19:23:25.601Z,14.80
2023-03-01T19:28:27.226Z,13.98
2023-03-01T19:33:30.336Z,14.55
2023-03-01T19:38:31.858Z,13.40
2023-03-01T19:43:33.838Z,15.25
2023-03-01T19:48:35.619Z,16.15
2023-03-01T19:53:39.092Z,14.85
2023-03-01T19:58:40.686Z,15.45
2023-03-01T20:03:42.445Z,14.10
2023-03-01T20:08:44.667Z,13.30
2023-03-01T20:13:48.494Z,14.32
2023-03-01T20:18:50.193Z,16.20
2023-03-01T20:23:52.197Z,15.60
2023-03-01T20:28:55.536Z,17.38
2023-03-01T20:33:58.044Z,14.70
2023-03-01T20:38:59.606Z,15.38
2023-03-01T20:44:01.199Z,15.93
2023-03-01T20:49:03.820Z,18.00
2023-03-01T20:54:05.513Z,15.82
2023-03-01T20:59:09.649Z,15.25
2023-03-01T21:04:11.311Z,16.25
2023-03-01T21:09:12.847Z,17.70
2023-03-01T21:14:14.397Z,15.38
2023-03-01T21:19:16.022Z,15.73
2023-03-01T21:24:17.567Z,17.88
2023-03-01T21:29:19.128Z,14.88
2023-03-01T21:34:20.658Z,16.13
2023-03-01T21:39:22.394Z,16.02
2023-03-01T21:44:26.504Z,16.70
2023-03-01T21:49:28.122Z,17.20
2023-03-01T21:54:29.619Z,15.68
2023-03-01T21:59:31.182Z,17.27
2023-03-01T22:04:32.872Z,16.63
2023-03-01T22:09:36.216Z,17.40
2023-03-01T22:14:37.784Z,18.08
2023-03-01T22:19:39.309Z,17.20
2023-03-01T22:24:40.879Z,16.90
2023-03-01T22:29:42.413Z,17.35
2023-03-01T22:34:43.920Z,18.52
2023-03-01T22:39:45.450Z,16.20
2023-03-01T22:44:47.089Z,17.80
2023-03-01T22:49:48.629Z,16.67
2023-03-01T22:54:54.296Z,16.52
2023-03-01T22:59:55.798Z,17.45
2023-03-01T23:04:57.321Z,15.98
2023-03-01T23:10:02.215Z,17.33
2023-03-01T23:15:05.041Z,15.27
2023-03-01T23:20:10.288Z,17.63
2023-03-01T23:25:15.027Z,18.13
2023-03-01T23:30:16.996Z,16.92
2023-03-01T23:35:18.799Z,16.42
2023-03-01T23:40:20.611Z,17.00
2023-03-01T23:45:22.108Z,16.85
2023-03-01T23:50:25.007Z,15.32
2023-03-01T23:55:27.855Z,17.63
